createdAt,value
2018-02-24T00:01:15.176Z,47.33
2018-02-24T00:03:44.287Z,54.60
2018-02-24T00:06:14.184Z,49.40
2018-02-24T00:08:43.518Z,48.60
2018-02-24T00:11:13.369Z,48.07
2018-02-24T00:13:42.465Z,52.07
2018-02-24T00:16:11.582Z,46.80
2018-02-24T00:18:40.690Z,55.97
2018-02-24T00:21:09.781Z,49.50
2018-02-24T00:23:38.900Z,49.10
2018-02-24T00:26:08.761Z,54.80
2018-02-24T00:28:37.881Z,46.83
2018-02-24T00:31:06.996Z,50.53
2018-02-24T00:33:36.863Z,46.97
2018-02-24T00:36:05.975Z,50.30
2018-02-24T00:38:35.076Z,44.27
2018-02-24T00:41:04.202Z,46.53
2018-02-24T00:43:33.291Z,48.70
2018-02-24T00:46:03.171Z,47.40
2018-02-24T00:48:32.254Z,51.17
2018-02-24T00:51:01.379Z,48.03
2018-02-24T00:53:30.495Z,55.83
2018-02-24T00:55:59.599Z,54.30
2018-02-24T00:58:29.457Z,47.33
2018-02-24T01:00:58.578Z,44.87
2018-02-24T01:03:27.701Z,52.27
2018-02-24T01:05:57.502Z,42.60
2018-02-24T01:08:26.613Z,54.90
2018-02-24T01:10:56.495Z,51.07
2018-02-24T01:13:26.355Z,59.27
2018-02-24T01:15:55.486Z,48.63
2018-02-24T01:18:24.598Z,50.20
2018-02-24T01:20:54.483Z,53.63
2018-02-24T01:23:23.594Z,50.67
2018-02-24T01:25:52.725Z,56.53
2018-02-24T01:28:21.828Z,45.40
2018-02-24T01:30:51.709Z,55.10
2018-02-24T01:33:20.801Z,60.70
2018-02-24T01:35:51.046Z,46.67
2018-02-24T01:38:20.159Z,50.53
2018-02-24T01:40:50.162Z,49.07
2018-02-24T01:43:19.275Z,50.43
2018-02-24T01:45:49.152Z,51.17
2018-02-24T01:48:18.313Z,52.23
2018-02-24T01:50:47.417Z,53.30
2018-02-24T01:53:16.537Z,51.70
2018-02-24T01:55:45.638Z,48.73
2018-02-24T01:58:15.525Z,55.33
2018-02-24T02:00:45.155Z,56.00
2018-02-24T02:03:14.245Z,52.70
2018-02-24T02:05:43.391Z,51.80
2018-02-24T02:08:12.495Z,53.23
2018-02-24T02:10:42.363Z,51.40
2018-02-24T02:13:11.485Z,50.03
2018-02-24T02:15:40.654Z,42.93
2018-02-24T02:18:09.754Z,53.63
2018-02-24T02:20:38.872Z,53.50
2018-02-24T02:23:07.987Z,51.90
2018-02-24T02:25:37.102Z,48.97
2018-02-24T02:28:06.233Z,53.13
2018-02-24T02:30:35.343Z,48.03
2018-02-24T02:33:04.458Z,54.53
2018-02-24T02:35:33.543Z,47.80
2018-02-24T02:38:02.663Z,50.73
2018-02-24T02:40:32.574Z,61.70
2018-02-24T02:43:01.665Z,48.27
2018-02-24T02:45:30.773Z,59.10
2018-02-24T02:48:00.641Z,55.10
2018-02-24T02:50:30.505Z,48.07
2018-02-24T02:53:00.385Z,54.07
2018-02-24T02:55:29.479Z,56.00
2018-02-24T02:58:02.811Z,49.53
2018-02-24T03:00:32.671Z,52.87
2018-02-24T03:03:01.789Z,60.27
2018-02-24T03:05:30.872Z,48.07
2018-02-24T03:07:59.995Z,56.53
2018-02-24T03:10:30.559Z,49.90
2018-02-24T03:12:59.661Z,57.03
2018-02-24T03:15:28.759Z,59.57
2018-02-24T03:17:57.869Z,53.80
2018-02-24T03:20:26.974Z,60.77
2018-02-24T03:22:56.086Z,52.33
2018-02-24T03:25:25.944Z,56.57
2018-02-24T03:27:55.059Z,54.20
2018-02-24T03:30:25.171Z,52.27
2018-02-24T03:32:54.281Z,49.90
2018-02-24T03:35:23.366Z,59.17
2018-02-24T03:37:52.487Z,60.20
2018-02-24T03:40:21.600Z,57.07
2018-02-24T03:42:50.673Z,55.50
2018-02-24T03:45:19.928Z,55.53
2018-02-24T03:47:49.025Z,65.63
2018-02-24T03:50:18.897Z,62.37
2018-02-24T03:52:48.815Z,53.00
2018-02-24T03:55:18.954Z,64.30
2018-02-24T03:57:48.081Z,60.77
2018-02-24T04:00:18.675Z,63.80
2018-02-24T04:02:47.774Z,64.67
2018-02-24T04:05:16.894Z,60.40
2018-02-24T04:07:47.366Z,57.13
2018-02-24T04:10:16.467Z,61.33
2018-02-24T04:12:45.582Z,61.43
2018-02-24T04:15:14.683Z,55.97
2018-02-24T04:17:43.799Z,56.90
2018-02-24T04:20:13.801Z,56.37
2018-02-24T04:22:42.927Z,57.20
2018-02-24T04:25:12.795Z,58.40
2018-02-24T04:27:41.871Z,63.90
2018-02-24T04:30:10.995Z,59.93
2018-02-24T04:32:40.097Z,63.73
2018-02-24T04:35:09.254Z,74.97
2018-02-24T04:37:38.332Z,69.37
2018-02-24T04:40:07.457Z,60.73
2018-02-24T04:42:36.562Z,59.53
2018-02-24T04:45:05.678Z,67.07
2018-02-24T04:47:34.792Z,58.03
2018-02-24T04:50:04.690Z,62.90
2018-02-24T04:52:35.299Z,59.97
2018-02-24T04:55:04.423Z,53.80
2018-02-24T04:57:33.524Z,56.53
2018-02-24T05:00:02.646Z,57.70
2018-02-24T05:02:31.757Z,65.40
2018-02-24T05:05:00.873Z,62.27
2018-02-24T05:07:30.953Z,60.93
2018-02-24T05:10:00.842Z,61.43
2018-02-24T05:12:29.953Z,63.30
2018-02-24T05:14:59.842Z,65.70
2018-02-24T05:17:29.654Z,61.90
2018-02-24T05:19:58.805Z,69.43
2018-02-24T05:22:27.895Z,62.20
2018-02-24T05:24:58.767Z,73.20
2018-02-24T05:27:27.898Z,60.47
2018-02-24T05:29:57.777Z,63.23
2018-02-24T05:32:26.905Z,60.83
2018-02-24T05:34:56.777Z,61.97
2018-02-24T05:37:27.565Z,71.23
2018-02-24T05:39:57.454Z,64.27
2018-02-24T05:42:26.554Z,70.60
2018-02-24T05:44:55.679Z,79.60
2018-02-24T05:47:25.546Z,64.70
2018-02-24T05:49:54.696Z,78.27
2018-02-24T05:52:24.547Z,67.37
2018-02-24T05:54:53.682Z,76.00
2018-02-24T05:57:22.806Z,83.17
2018-02-24T05:59:51.922Z,70.90
2018-02-24T06:02:21.061Z,69.87
2018-02-24T06:04:50.183Z,63.23
2018-02-24T06:07:20.054Z,69.70
2018-02-24T06:09:49.174Z,75.17
2018-02-24T06:12:18.303Z,68.37
2018-02-24T06:14:48.223Z,62.33
2018-02-24T06:17:17.323Z,75.20
2018-02-24T06:19:46.445Z,68.27
2018-02-24T06:22:15.561Z,69.93
2018-02-24T06:24:44.673Z,62.43
2018-02-24T06:27:13.790Z,64.17
2018-02-24T06:29:43.679Z,68.43
2018-02-24T06:32:12.806Z,70.63
2018-02-24T06:34:42.681Z,62.97
2018-02-24T06:37:12.703Z,66.83
2018-02-24T06:39:41.821Z,65.60
2018-02-24T06:42:10.941Z,73.60
2018-02-24T06:44:40.038Z,69.33
2018-02-24T06:47:09.148Z,68.27
2018-02-24T06:49:38.262Z,71.07
2018-02-24T06:52:08.147Z,69.20
2018-02-24T06:54:37.282Z,67.47
2018-02-24T06:57:06.407Z,65.70
2018-02-24T06:59:35.499Z,70.93
2018-02-24T07:02:05.404Z,71.67
2018-02-24T07:04:34.556Z,68.07
2018-02-24T07:07:03.692Z,72.40
2018-02-24T07:09:32.793Z,81.03
2018-02-24T07:12:01.927Z,77.17
2018-02-24T07:14:31.102Z,76.17
2018-02-24T07:17:00.211Z,73.27
2018-02-24T07:19:30.077Z,71.03
2018-02-24T07:21:59.200Z,83.30
2018-02-24T07:24:30.345Z,64.90
2018-02-24T07:26:59.469Z,72.27
2018-02-24T07:29:28.594Z,77.87
2018-02-24T07:31:58.636Z,74.83
2018-02-24T07:34:27.762Z,67.73
2018-02-24T07:36:56.882Z,63.70
2018-02-24T07:39:26.028Z,65.47
2018-02-24T07:41:55.168Z,71.37
2018-02-24T07:44:25.050Z,65.93
2018-02-24T07:46:54.201Z,78.13
2018-02-24T07:49:23.317Z,68.57
2018-02-24T07:51:52.439Z,76.00
2018-02-24T07:54:21.547Z,68.67
2018-02-24T07:56:51.441Z,65.37
2018-02-24T07:59:20.573Z,70.50
2018-02-24T08:01:50.468Z,65.50
2018-02-24T08:04:19.599Z,70.87
2018-02-24T08:06:49.463Z,62.53
2018-02-24T08:09:18.579Z,66.20
2018-02-24T08:11:47.686Z,63.90
2018-02-24T08:14:17.838Z,68.00
2018-02-24T08:16:46.954Z,68.20
2018-02-24T08:19:16.070Z,66.20
2018-02-24T08:21:45.188Z,68.60
2018-02-24T08:24:14.328Z,67.93
2018-02-24T08:26:44.203Z,67.73
2018-02-24T08:29:13.310Z,66.27
2018-02-24T08:31:44.134Z,71.30
2018-02-24T08:34:13.266Z,65.00
2018-02-24T08:36:42.372Z,63.87
2018-02-24T08:39:11.475Z,65.53
2018-02-24T08:41:40.585Z,65.07
2018-02-24T08:44:09.723Z,68.27
2018-02-24T08:46:39.598Z,62.00
2018-02-24T08:49:08.735Z,66.10
2018-02-24T08:51:38.629Z,69.70
2018-02-24T08:54:07.763Z,64.57
2018-02-24T08:56:36.862Z,55.73
2018-02-24T08:59:05.995Z,64.47
2018-02-24T09:01:35.109Z,68.77
2018-02-24T09:04:04.217Z,60.40
2018-02-24T09:06:33.321Z,69.83
2018-02-24T09:09:03.210Z,72.73
2018-02-24T09:11:32.324Z,66.90
2018-02-24T09:14:01.451Z,54.10
2018-02-24T09:16:31.317Z,56.17
2018-02-24T09:19:00.431Z,57.97
2018-02-24T09:21:29.561Z,57.90
2018-02-24T09:23:59.434Z,57.40
2018-02-24T09:26:28.573Z,64.87
2018-02-24T09:28:57.661Z,65.47
2018-02-24T09:31:27.578Z,57.80
2018-02-24T09:33:57.426Z,61.30
2018-02-24T09:36:27.456Z,66.63
2018-02-24T09:38:57.394Z,57.93
2018-02-24T09:41:26.521Z,58.00
2018-02-24T09:43:55.618Z,64.70
2018-02-24T09:46:25.507Z,52.40
2018-02-24T09:48:54.612Z,62.27
2018-02-24T09:51:23.760Z,57.33
2018-02-24T09:53:52.867Z,48.13
2018-02-24T09:56:21.975Z,64.30
2018-02-24T09:58:51.111Z,57.87
2018-02-24T10:01:21.996Z,59.57
2018-02-24T10:03:51.142Z,54.13
2018-02-24T10:06:21.485Z,52.90
2018-02-24T10:08:51.225Z,54.67
2018-02-24T10:11:21.117Z,53.83
2018-02-24T10:13:50.220Z,54.63
2018-02-24T10:16:19.326Z,53.90
2018-02-24T10:18:48.499Z,66.70
2018-02-24T10:21:17.603Z,52.30
2018-02-24T10:23:46.744Z,48.87
2018-02-24T10:26:15.871Z,48.50
2018-02-24T10:28:45.902Z,51.10
2018-02-24T10:31:15.023Z,51.60
2018-02-24T10:33:44.152Z,50.37
2018-02-24T10:36:14.055Z,50.93
2018-02-24T10:38:43.166Z,52.30
2018-02-24T10:41:12.285Z,45.13
2018-02-24T10:43:41.394Z,42.03
2018-02-24T10:46:10.524Z,46.57
2018-02-24T10:48:39.598Z,48.57
2018-02-24T10:51:08.738Z,50.70
2018-02-24T10:53:38.606Z,45.20
2018-02-24T10:56:07.715Z,43.73
2018-02-24T10:58:37.577Z,42.00
2018-02-24T11:01:07.463Z,46.40
2018-02-24T11:03:36.575Z,41.60
2018-02-24T11:06:15.592Z,45.13
2018-02-24T11:08:45.473Z,44.70
2018-02-24T11:11:14.601Z,45.50
2018-02-24T11:13:43.717Z,49.20
2018-02-24T11:16:13.614Z,52.27
2018-02-24T11:18:43.510Z,49.13
2018-02-24T11:21:12.647Z,47.07
2018-02-24T11:23:42.496Z,46.20
2018-02-24T11:26:11.641Z,44.30
2018-02-24T11:28:40.730Z,46.13
2018-02-24T11:31:10.606Z,47.53
2018-02-24T11:33:39.730Z,47.80
2018-02-24T11:36:10.006Z,39.60
2018-02-24T11:38:39.114Z,50.43
2018-02-24T11:41:08.203Z,44.93
2018-02-24T11:43:37.337Z,44.20
2018-02-24T11:46:06.455Z,44.60
2018-02-24T11:48:36.355Z,42.33
2018-02-24T11:51:05.466Z,41.53
2018-02-24T11:53:35.322Z,42.33
2018-02-24T11:56:04.441Z,47.23
2018-02-24T11:58:33.558Z,43.40
2018-02-24T12:01:03.262Z,38.50
2018-02-24T12:03:32.419Z,40.10
2018-02-24T12:06:01.565Z,39.50
2018-02-24T12:08:31.454Z,39.57
2018-02-24T12:11:00.578Z,38.43
2018-02-24T12:13:29.725Z,41.10
2018-02-24T12:15:58.840Z,39.77
2018-02-24T12:18:27.934Z,43.80
2018-02-24T12:20:57.072Z,35.30
2018-02-24T12:23:26.161Z,39.60
2018-02-24T12:25:56.043Z,39.30
2018-02-24T12:28:25.133Z,30.83
2018-02-24T12:30:54.289Z,32.40
2018-02-24T12:33:25.032Z,41.63
2018-02-24T12:35:54.901Z,31.93
2018-02-24T12:38:24.015Z,36.90
2018-02-24T12:40:53.144Z,42.93
2018-02-24T12:43:22.241Z,43.57
2018-02-24T12:45:51.413Z,40.90
2018-02-24T12:48:20.521Z,45.80
2018-02-24T12:50:50.414Z,40.50
2018-02-24T12:53:20.316Z,35.67
2018-02-24T12:55:49.437Z,37.23
2018-02-24T12:58:19.315Z,41.83
2018-02-24T13:00:48.410Z,37.70
2018-02-24T13:03:17.537Z,32.83
2018-02-24T13:05:47.407Z,44.53
2018-02-24T13:08:16.543Z,38.10
2018-02-24T13:10:45.621Z,39.50
2018-02-24T13:13:14.785Z,37.07
2018-02-24T13:15:43.878Z,36.70
2018-02-24T13:18:12.968Z,31.37
2018-02-24T13:20:42.105Z,42.13
2018-02-24T13:23:11.216Z,33.70
2018-02-24T13:25:40.329Z,36.43
2018-02-24T13:28:10.203Z,35.73
2018-02-24T13:30:40.091Z,36.83
2018-02-24T13:33:09.208Z,39.47
2018-02-24T13:35:38.361Z,34.63
2018-02-24T13:38:08.220Z,39.17
2018-02-24T13:40:38.106Z,34.37
2018-02-24T13:43:07.227Z,37.67
2018-02-24T13:45:36.348Z,31.40
2018-02-24T13:48:05.500Z,39.27
2018-02-24T13:50:34.621Z,31.50
2018-02-24T13:53:03.724Z,27.83
2018-02-24T13:55:32.866Z,26.83
2018-02-24T13:58:02.741Z,30.57
2018-02-24T14:00:31.863Z,26.60
2018-02-24T14:03:01.750Z,32.60
2018-02-24T14:05:30.941Z,24.90
2018-02-24T14:08:00.050Z,31.17
2018-02-24T14:10:29.137Z,33.50
2018-02-24T14:12:58.264Z,29.07
2018-02-24T14:15:28.152Z,30.37
2018-02-24T14:17:57.289Z,21.70
2018-02-24T14:20:27.178Z,27.10
2018-02-24T14:22:56.285Z,22.93
2018-02-24T14:25:25.394Z,26.03
2018-02-24T14:27:55.283Z,25.83
2018-02-24T14:30:24.398Z,24.30
2018-02-24T14:32:54.258Z,26.43
2018-02-24T14:35:27.103Z,29.87
2018-02-24T14:37:56.972Z,27.73
2018-02-24T14:40:26.107Z,24.37
2018-02-24T14:42:55.986Z,25.97
2018-02-24T14:45:25.095Z,22.73
2018-02-24T14:47:54.862Z,28.90
2018-02-24T14:50:23.969Z,23.40
2018-02-24T14:52:53.099Z,30.10
2018-02-24T14:55:22.224Z,23.83
2018-02-24T14:57:52.149Z,27.80
2018-02-24T15:00:21.300Z,27.73
2018-02-24T15:02:50.452Z,24.77
2018-02-24T15:05:19.549Z,25.90
2018-02-24T15:07:49.235Z,22.60
2018-02-24T15:10:19.133Z,21.40
2018-02-24T15:12:48.260Z,25.47
2018-02-24T15:15:17.436Z,23.53
2018-02-24T15:17:46.574Z,23.70
2018-02-24T15:20:15.757Z,25.53
2018-02-24T15:22:44.947Z,26.30
2018-02-24T15:25:14.066Z,26.23
2018-02-24T15:27:43.715Z,31.73
2018-02-24T15:30:12.884Z,22.50
2018-02-24T15:32:42.023Z,26.17
2018-02-24T15:35:12.678Z,26.13
2018-02-24T15:37:42.579Z,21.57
2018-02-24T15:40:13.566Z,26.03
2018-02-24T15:42:42.690Z,26.73
2018-02-24T15:45:11.795Z,17.67
2018-02-24T15:47:40.933Z,17.77
2018-02-24T15:50:10.061Z,18.80
2018-02-24T15:52:39.185Z,15.80
2018-02-24T15:55:08.290Z,19.53
2018-02-24T15:57:38.175Z,18.53
2018-02-24T16:00:07.280Z,17.90
2018-02-24T16:02:37.128Z,18.53
2018-02-24T16:05:07.007Z,17.87
2018-02-24T16:07:36.185Z,16.10
2018-02-24T16:10:05.306Z,16.17
2018-02-24T16:12:34.393Z,18.57
2018-02-24T16:15:03.532Z,15.20
2018-02-24T16:17:32.646Z,21.57
2018-02-24T16:20:01.758Z,16.67
2018-02-24T16:22:30.891Z,21.43
2018-02-24T16:25:00.016Z,19.40
2018-02-24T16:27:29.896Z,20.77
2018-02-24T16:29:59.021Z,15.40
2018-02-24T16:32:28.904Z,17.37
2018-02-24T16:34:58.036Z,17.53
2018-02-24T16:37:27.922Z,19.47
2018-02-24T16:39:57.054Z,23.17
2018-02-24T16:42:26.930Z,23.07
2018-02-24T16:44:56.229Z,19.93
2018-02-24T16:47:25.326Z,22.43
2018-02-24T16:49:54.453Z,20.77
2018-02-24T16:52:24.318Z,19.27
2018-02-24T16:54:53.450Z,20.30
2018-02-24T16:57:23.323Z,20.57
2018-02-24T16:59:52.442Z,16.90
2018-02-24T17:02:21.596Z,19.87
2018-02-24T17:04:50.762Z,25.07
2018-02-24T17:07:19.855Z,23.80
2018-02-24T17:09:48.982Z,25.47
2018-02-24T17:12:18.119Z,25.27
2018-02-24T17:14:47.218Z,25.43
2018-02-24T17:17:16.375Z,26.10
2018-02-24T17:19:46.243Z,21.67
2018-02-24T17:22:15.380Z,24.60
2018-02-24T17:24:44.497Z,22.93
2018-02-24T17:27:13.630Z,22.40
2018-02-24T17:29:43.013Z,19.00
2018-02-24T17:32:12.116Z,23.97
2018-02-24T17:34:46.276Z,24.23
2018-02-24T17:37:16.156Z,23.37
2018-02-24T17:39:46.067Z,18.87
2018-02-24T17:42:15.189Z,22.10
2018-02-24T17:44:44.337Z,21.90
2018-02-24T17:47:14.456Z,21.87
2018-02-24T17:49:43.562Z,20.00
2018-02-24T17:52:12.683Z,83.77
2018-02-24T17:54:41.818Z,20.03
2018-02-24T17:57:10.926Z,30.13
2018-02-24T17:59:40.055Z,18.10
2018-02-24T18:02:09.930Z,20.10
2018-02-24T18:04:39.104Z,22.40
2018-02-24T18:07:08.213Z,26.20
2018-02-24T18:09:38.090Z,32.57
2018-02-24T18:12:07.235Z,27.60
2018-02-24T18:14:37.115Z,31.80
2018-02-24T18:17:06.246Z,24.83
2018-02-24T18:19:35.357Z,19.70
2018-02-24T18:22:05.270Z,23.83
2018-02-24T18:24:35.445Z,28.57
2018-02-24T18:27:04.580Z,22.47
2018-02-24T18:29:34.443Z,24.03
2018-02-24T18:32:03.579Z,27.47
2018-02-24T18:34:33.435Z,24.10
2018-02-24T18:37:02.541Z,17.57
2018-02-24T18:39:32.471Z,22.97
2018-02-24T18:42:01.582Z,22.43
2018-02-24T18:44:31.519Z,18.47
2018-02-24T18:47:00.616Z,27.20
2018-02-24T18:49:29.743Z,21.57
2018-02-24T18:51:58.846Z,14.20
2018-02-24T18:54:27.988Z,21.27
2018-02-24T18:56:57.127Z,17.43
2018-02-24T18:59:26.243Z,21.90
2018-02-24T19:01:57.073Z,17.60
2018-02-24T19:04:26.193Z,18.23
2018-02-24T19:06:55.328Z,14.40
2018-02-24T19:09:25.217Z,15.27
2018-02-24T19:11:54.323Z,12.80
2018-02-24T19:14:24.237Z,15.97
2018-02-24T19:16:53.305Z,17.77
2018-02-24T19:19:22.412Z,15.60
2018-02-24T19:21:52.474Z,17.13
2018-02-24T19:24:21.572Z,15.90
2018-02-24T19:26:50.712Z,20.43
2018-02-24T19:29:19.817Z,17.73
2018-02-24T19:31:48.930Z,15.90
2018-02-24T19:34:18.802Z,14.03
2018-02-24T19:36:47.938Z,14.60
2018-02-24T19:39:17.041Z,16.30
2018-02-24T19:41:46.926Z,18.10
2018-02-24T19:44:16.031Z,15.63
2018-02-24T19:46:45.156Z,15.63
2018-02-24T19:49:15.061Z,19.07
2018-02-24T19:51:44.903Z,15.10
2018-02-24T19:54:14.019Z,17.97
2018-02-24T19:56:43.145Z,17.63
2018-02-24T19:59:12.264Z,16.17
2018-02-24T20:01:42.146Z,15.70
2018-02-24T20:04:11.267Z,15.87
2018-02-24T20:06:40.526Z,16.37
2018-02-24T20:09:09.632Z,16.70
2018-02-24T20:11:38.754Z,13.70
2018-02-24T20:14:08.658Z,21.47
2018-02-24T20:16:37.781Z,12.10
2018-02-24T20:19:08.135Z,14.60
2018-02-24T20:21:37.250Z,13.87
2018-02-24T20:24:06.392Z,15.83
2018-02-24T20:26:35.506Z,13.60
2018-02-24T20:29:04.628Z,14.70
2018-02-24T20:31:33.750Z,17.57
2018-02-24T20:34:02.883Z,16.67
2018-02-24T20:36:32.773Z,15.43
2018-02-24T20:39:01.913Z,9.93
2018-02-24T20:41:31.782Z,12.90
2018-02-24T20:44:04.310Z,11.07
2018-02-24T20:46:34.227Z,13.50
2018-02-24T20:49:03.316Z,10.67
2018-02-24T20:51:33.318Z,14.93
2018-02-24T20:54:02.450Z,9.67
2018-02-24T20:56:31.585Z,17.33
2018-02-24T20:59:00.699Z,14.03
2018-02-24T21:01:29.816Z,16.57
2018-02-24T21:04:00.402Z,10.47
2018-02-24T21:06:29.539Z,9.30
2018-02-24T21:08:58.674Z,12.53
2018-02-24T21:11:27.803Z,9.60
2018-02-24T21:13:56.918Z,12.37
2018-02-24T21:16:26.841Z,17.03
2018-02-24T21:18:56.732Z,12.03
2018-02-24T21:21:25.819Z,8.33
2018-02-24T21:23:54.972Z,11.57
2018-02-24T21:26:24.090Z,7.73
2018-02-24T21:28:53.217Z,13.63
2018-02-24T21:31:22.344Z,9.17
2018-02-24T21:33:52.227Z,9.53
2018-02-24T21:36:21.328Z,17.80
2018-02-24T21:38:50.486Z,10.10
2018-02-24T21:41:19.594Z,15.33
2018-02-24T21:43:48.702Z,11.73
2018-02-24T21:46:18.616Z,11.03
2018-02-24T21:48:47.739Z,10.77
2018-02-24T21:51:17.662Z,10.63
2018-02-24T21:53:46.844Z,7.53
2018-02-24T21:56:16.548Z,7.93
2018-02-24T21:58:45.691Z,9.93
2018-02-24T22:01:14.790Z,10.23
2018-02-24T22:03:43.922Z,10.73
2018-02-24T22:06:13.969Z,14.17
2018-02-24T22:08:43.793Z,8.20
2018-02-24T22:11:13.660Z,7.53
2018-02-24T22:13:42.768Z,8.30
2018-02-24T22:16:11.882Z,11.50
2018-02-24T22:18:41.008Z,13.37
2018-02-24T22:21:10.892Z,14.83
2018-02-24T22:23:40.001Z,15.23
2018-02-24T22:26:09.115Z,6.93
2018-02-24T22:28:38.982Z,10.50
2018-02-24T22:31:08.113Z,9.20
2018-02-24T22:33:38.279Z,10.13
2018-02-24T22:36:07.403Z,11.70
2018-02-24T22:38:36.487Z,13.10
2018-02-24T22:41:05.617Z,13.23
2018-02-24T22:43:34.727Z,12.47
2018-02-24T22:46:04.613Z,9.23
2018-02-24T23:02:01.090Z,12.53
2018-02-24T23:04:30.193Z,13.10
2018-02-24T23:07:00.176Z,14.70
2018-02-24T23:09:29.264Z,10.10
2018-02-24T23:11:58.379Z,10.03
2018-02-24T23:14:27.469Z,12.43
2018-02-24T23:16:57.346Z,11.87
2018-02-24T23:19:26.429Z,16.93
2018-02-24T23:21:55.563Z,14.20
2018-02-24T23:24:24.641Z,14.27
2018-02-24T23:26:53.732Z,13.10
2018-02-24T23:29:22.854Z,13.73
2018-02-24T23:31:52.730Z,11.37
2018-02-24T23:34:21.862Z,13.23
2018-02-24T23:36:50.985Z,16.03
2018-02-24T23:39:20.082Z,9.63
2018-02-24T23:41:49.233Z,21.17
2018-02-24T23:44:18.590Z,9.97
2018-02-24T23:46:47.678Z,12.20
2018-02-24T23:49:16.798Z,10.10
2018-02-24T23:51:45.895Z,9.13
2018-02-24T23:54:15.016Z,10.17
2018-02-24T23:56:44.968Z,17.50
2018-02-24T23:59:14.064Z,17.80
